AirNav   Everest Fuels
 
 756 users online  

CA21 Limberlost Ranch Airport
Rough and Ready, California, USA

GOING TO ROUGH AND READY?


FAA INFORMATION EFFECTIVE 03 NOVEMBER 2022

Location

FAA Identifier: CA21
Lat/Long: 39-13-14.6160N 121-12-53.8430W
39-13.243600N 121-12.897383W
39.2207267,-121.2149564
(estimated)
Elevation: 1650 ft. / 503 m (estimated)
Variation: 16E (1985)
From city: 3 miles W of ROUGH AND READY, CA
Time zone: UTC -8 (UTC -7 during Daylight Saving Time)
Zip code: 95946

Airport Operations

Airport use: Private use. Permission required prior to landing
Control tower: no
ARTCC: OAKLAND CENTER
FSS: RANCHO MURIETA FLIGHT SERVICE STATION
Attendance: CONTINUOUS
Wind indicator: yes
Segmented circle: no

Airport Communications

WX AWOS-3 at GOO (10 nm E): 121.325 (530-273-0029)
WX AWOS-3 at AUN (17 nm S): 119.375 (530-888-8934)
WX ASOS at MYV (18 nm SW): 118.475 (530-742-0695)
WX AWOS-3 at LHM (20 nm S): 124.25 (916-645-0698)

Nearby radio navigation aids

VOR radial/distance  VOR name  Freq  Var
MYVr050/18.2MARYSVILLE VOR/DME110.8016E
MCCr358/34.4MC CLELLAN VOR/DME109.2017E
HNWr307/36.8HANGTOWN VOR/DME115.5017E
ILAr059/38.8WILLIAMS VORTAC114.4018E

Airport Services

Airframe service: NONE
Powerplant service: NONE

Runway Information

Runway 10/28

Dimensions: 1700 x 100 ft. / 518 x 30 m
Surface: turf
RUNWAY 10  RUNWAY 28
Traffic pattern: leftleft
Obstructions: treestrees

Airport Ownership and Management from official FAA records

Ownership: Privately-owned
Owner: FANCY ANN FECHSER
19600 TOYON DRIVE
PENN VALLEY, CA 95946
Phone (323) 633-6989
Manager: FANCY ANN FECHSER
19600 TOYON DRIVE
PENN VALLEY, CA 95946
Phone (323) 633-6989

Additional Remarks

TREES WEST END & SIDES OF RWY. HANGER N SIDE RWY 10.
FOR CD CTC NORCAL APCH AT 916-361-6874.

Instrument Procedures

There are no published instrument procedures at CA21.

Some nearby airports with instrument procedures:

KGOO - Nevada County Airport (10 nm E)
KBAB - Beale Air Force Base (11 nm SW)
KAUN - Auburn Municipal Airport (17 nm S)
KMYV - Yuba County Airport (18 nm SW)
KLHM - Lincoln Regional Airport/Karl Harder Field (20 nm S)
 
Loc | Ops | Rwys | IFR | FBO | Links
Com | Nav | Svcs | Stats | Notes
Area around CA21 (Limberlost Ranch Airport)
 
Road maps at: MapQuest Bing Google
 
Aerial photo
WARNING: Photo may not be current or correct
Aerial photo of CA21 (Limberlost Ranch Airport)
Photo taken 08-Dec-2010

Do you have a better or more recent aerial photo of Limberlost Ranch Airport that you would like to share? If so, please send us your photo.

 
Sectional chart

 
Airport distance calculator
Flying to Limberlost Ranch Airport? Find the distance to fly.

From to CA21

Sunrise and sunset
Times for 28-Nov-2022
 Local
(UTC-8)
 Zulu
(UTC)
Morning civil twilight06:3414:34
Sunrise07:0315:03
Sunset16:4200:42
Evening civil twilight17:1201:12

Current date and time
Zulu (UTC)  28-Nov-2022 12:51:15
Local (UTC-8)  28-Nov-2022 04:51:15
 
METAR
KGOO 
10nm E 
281235Z AUTO 00000KT 10SM BKN060 06/M02 A2993 RMK A01
KBAB 
11nm SW 
280555Z AUTO 10005KT 10SM CLR 08/03 A2998 RMK AO2 SLP155 T00840028 10162 20065 $
KAUN 
17nm S 
281235Z AUTO 10006KT 10SM CLR 07/00 A2995 RMK A01
KLHM 
20nm S 
281235Z AUTO 25004KT 10SM CLR 01/01 A2994 RMK AO1
TAF
NOTAMs
Click for the latest NOTAMs
NOTAMs are issued by the DoD/FAA and will open in a separate window not controlled by AirNav.

 

 
 

Would you like to see your business listed on this page?

 If your business provides an interesting product or service to pilots, flight crews, aircraft, or users of the Limberlost Ranch Airport, you should consider listing it here.  To start the listing process, click on the button below
 
Add a business
 

Other Pages about Limberlost Ranch Airport

Update a link
 
Copyright © AirNav, LLC. All rights reserved. Privacy Policy  Contact